Time;durP1;ratioP1;P1;durP2;ratioP2;P2;SDS_P1;SDS_P2;PMS_P1;PMS_P2;Temp;Humidity;BMP_temperature;BMP_pressure;BME280_temperature;BME280_humidity;BME280_pressure;Samples;Min_cycle;Max_cycle;Signal;HPM_P1;HPM_P2
2021/10/27 00:02:25;;;;;;;29.10;17.30;;;24.50;38.60;;;;;;6132514;28;82742;-72
2021/10/27 00:05:25;;;;;;;23.85;14.60;;;24.50;38.20;;;;;;6130531;28;85084;-74
2021/10/27 00:08:26;;;;;;;27.65;16.27;;;24.40;38.50;;;;;;6130530;28;83728;-74
2021/10/27 00:11:26;;;;;;;25.42;15.57;;;24.40;38.70;;;;;;6113530;28;84270;-73
2021/10/27 00:14:27;;;;;;;30.40;16.60;;;24.40;39.30;;;;;;6130209;28;83657;-73
2021/10/27 00:17:28;;;;;;;31.73;17.23;;;24.40;39.10;;;;;;6113626;28;83983;-74
2021/10/27 00:20:28;;;;;;;27.50;16.65;;;24.50;39.00;;;;;;6132096;28;83122;-73
2021/10/27 00:23:29;;;;;;;28.95;17.35;;;24.50;38.90;;;;;;6130415;28;83186;-73
2021/10/27 00:26:30;;;;;;;33.25;18.55;;;24.50;38.70;;;;;;6131424;28;84201;-73
2021/10/27 00:29:30;;;;;;;30.38;18.15;;;24.50;39.00;;;;;;6130433;28;84704;-74
2021/10/27 00:32:31;;;;;;;33.85;18.98;;;24.40;38.70;;;;;;6145362;28;83803;-74
2021/10/27 00:35:31;;;;;;;30.15;17.25;;;24.40;39.00;;;;;;6147959;28;86456;-74
2021/10/27 00:38:32;;;;;;;26.38;16.83;;;24.50;38.80;;;;;;6131671;28;83170;-74
2021/10/27 00:41:32;;;;;;;32.63;18.80;;;24.40;38.90;;;;;;6131571;28;85020;-74
2021/10/27 00:44:33;;;;;;;31.55;18.00;;;24.40;38.90;;;;;;6130765;28;83532;-75
2021/10/27 00:47:33;;;;;;;28.58;17.10;;;24.40;38.90;;;;;;6112890;28;84811;-75
2021/10/27 00:50:34;;;;;;;29.83;17.30;;;24.40;39.10;;;;;;6130855;28;83965;-75
2021/10/27 00:53:34;;;;;;;27.77;17.95;;;24.40;39.10;;;;;;6130492;28;83195;-73
2021/10/27 00:56:35;;;;;;;33.63;19.00;;;24.40;38.90;;;;;;6131928;28;84286;-73
2021/10/27 00:59:35;;;;;;;28.75;18.10;;;24.40;39.10;;;;;;6134063;28;83689;-73
2021/10/27 01:02:36;;;;;;;26.50;16.08;;;24.40;38.80;;;;;;6133470;28;89314;-72
2021/10/27 01:05:37;;;;;;;25.15;15.38;;;24.40;38.70;;;;;;6151159;28;84324;-72
2021/10/27 01:08:38;;;;;;;26.65;15.90;;;24.40;39.10;;;;;;6133855;28;83287;-72
2021/10/27 01:11:38;;;;;;;25.48;16.55;;;24.40;39.20;;;;;;6133503;28;83190;-69
2021/10/27 01:14:39;;;;;;;27.77;17.10;;;24.40;38.90;;;;;;6133170;28;84289;-74
2021/10/27 01:17:39;;;;;;;23.15;14.73;;;24.40;38.60;;;;;;6117554;28;84803;-69
2021/10/27 01:20:40;;;;;;;24.58;14.95;;;24.40;38.60;;;;;;6134197;28;83585;-73
2021/10/27 01:23:40;;;;;;;30.35;18.10;;;24.40;39.00;;;;;;6136728;28;84508;-74
2021/10/27 01:26:42;;;;;;;29.52;17.50;;;24.40;38.90;;;;;;6134414;28;85313;-73
2021/10/27 01:29:42;;;;;;;27.80;16.98;;;24.40;38.60;;;;;;6116943;28;85729;-73
2021/10/27 01:32:43;;;;;;;23.98;14.10;;;24.40;38.50;;;;;;6134257;28;83090;-73
2021/10/27 01:35:43;;;;;;;30.10;16.95;;;24.40;39.50;;;;;;6133612;28;84053;-73
2021/10/27 01:38:45;;;;;;;24.38;15.25;;;24.40;38.70;;;;;;6133717;28;82989;-74
2021/10/27 01:41:46;;;;;;;27.45;15.13;;;24.40;39.10;;;;;;6132883;28;82925;-73
2021/10/27 01:44:46;;;;;;;24.80;15.38;;;24.40;39.20;;;;;;6135080;28;83152;-73
2021/10/27 01:47:47;;;;;;;26.35;15.48;;;24.40;38.90;;;;;;6117371;28;83636;-73
2021/10/27 01:50:47;;;;;;;23.85;15.23;;;24.40;39.10;;;;;;6148580;28;83506;-73
2021/10/27 01:53:48;;;;;;;26.02;16.35;;;24.40;39.30;;;;;;6116026;28;83277;-73
2021/10/27 01:56:48;;;;;;;23.77;15.07;;;24.40;38.90;;;;;;6133370;28;83012;-73
2021/10/27 01:59:49;;;;;;;29.92;16.45;;;24.40;39.30;;;;;;6133892;28;82988;-74
2021/10/27 02:02:49;;;;;;;24.90;15.18;;;24.40;39.20;;;;;;6132526;28;83397;-71
2021/10/27 02:05:50;;;;;;;23.92;14.98;;;24.40;39.50;;;;;;6131643;28;83703;-74
2021/10/27 02:08:50;;;;;;;25.45;15.70;;;24.40;39.50;;;;;;6132778;28;83459;-73
2021/10/27 02:11:51;;;;;;;28.80;17.50;;;24.40;39.40;;;;;;6134908;28;83091;-72
2021/10/27 02:14:51;;;;;;;23.50;14.82;;;24.40;39.40;;;;;;6141182;28;84409;-72
2021/10/27 02:17:52;;;;;;;24.10;14.82;;;24.40;40.10;;;;;;6132684;28;83510;-72
2021/10/27 02:20:53;;;;;;;25.27;15.88;;;24.40;39.80;;;;;;6116293;28;85040;-73
2021/10/27 02:23:57;;;;;;;21.05;14.23;;;24.40;39.50;;;;;;6115481;28;85033;-73
2021/10/27 02:26:58;;;;;;;26.92;16.17;;;24.40;39.40;;;;;;6131252;28;83333;-74
2021/10/27 02:29:59;;;;;;;25.65;16.73;;;24.40;38.80;;;;;;6114686;28;85119;-73
2021/10/27 02:32:59;;;;;;;25.45;15.68;;;24.40;38.50;;;;;;6132423;28;83385;-73
2021/10/27 02:36:00;;;;;;;26.10;15.98;;;24.40;38.70;;;;;;6147967;28;83075;-73
2021/10/27 02:39:01;;;;;;;26.55;15.75;;;24.40;38.90;;;;;;6132288;28;82989;-75
2021/10/27 02:42:02;;;;;;;26.27;16.42;;;24.40;38.90;;;;;;6131485;28;82972;-73
2021/10/27 02:45:02;;;;;;;29.98;17.40;;;24.40;38.30;;;;;;6127480;28;83115;-74
2021/10/27 02:48:02;;;;;;;26.25;15.55;;;24.40;38.20;;;;;;6134504;28;83229;-74
2021/10/27 02:51:03;;;;;;;24.02;15.52;;;24.50;38.20;;;;;;6149935;28;83213;-73
2021/10/27 02:54:04;;;;;;;29.38;16.05;;;24.50;38.10;;;;;;6133249;28;83456;-72
2021/10/27 02:57:04;;;;;;;26.30;14.70;;;24.50;38.50;;;;;;6132559;28;83314;-72
2021/10/27 03:00:05;;;;;;;24.67;15.07;;;24.60;38.30;;;;;;6130980;28;83598;-73
2021/10/27 03:03:05;;;;;;;24.67;14.15;;;24.60;38.40;;;;;;6130719;28;82979;-73
2021/10/27 03:06:06;;;;;;;23.88;14.45;;;24.60;38.50;;;;;;6132133;28;84200;-73
2021/10/27 03:09:06;;;;;;;24.13;14.18;;;24.60;38.20;;;;;;6131890;28;83767;-74
2021/10/27 03:12:07;;;;;;;26.30;14.73;;;24.60;38.60;;;;;;6135874;28;83056;-73
2021/10/27 03:15:08;;;;;;;21.98;13.82;;;24.60;38.70;;;;;;6135725;28;83478;-73
2021/10/27 03:18:08;;;;;;;24.27;14.63;;;24.60;38.40;;;;;;6131579;28;84613;-75
2021/10/27 03:21:09;;;;;;;24.88;13.98;;;24.70;38.70;;;;;;6132243;28;83901;-73
2021/10/27 03:24:09;;;;;;;22.05;13.70;;;24.70;38.60;;;;;;6132875;28;83063;-73
2021/10/27 03:27:10;;;;;;;25.50;13.95;;;24.70;38.50;;;;;;6129952;28;83289;-71
2021/10/27 03:30:11;;;;;;;25.50;14.10;;;24.70;38.60;;;;;;6131705;28;84763;-72
2021/10/27 03:33:11;;;;;;;19.88;13.40;;;24.70;38.50;;;;;;6130056;28;87204;-72
2021/10/27 03:36:12;;;;;;;20.92;13.38;;;24.70;38.60;;;;;;6122664;28;83255;-72
2021/10/27 03:39:13;;;;;;;20.30;13.38;;;24.70;38.80;;;;;;6146262;28;85927;-73
2021/10/27 03:42:13;;;;;;;22.70;12.77;;;24.70;38.70;;;;;;6131919;28;83064;-72
2021/10/27 03:45:14;;;;;;;23.40;13.50;;;24.70;38.70;;;;;;6131905;28;83649;-73
2021/10/27 03:48:14;;;;;;;21.10;13.85;;;24.70;38.70;;;;;;6131838;28;83414;-73
2021/10/27 03:51:15;;;;;;;21.80;13.20;;;24.70;38.70;;;;;;6132399;28;83663;-73
2021/10/27 03:54:16;;;;;;;20.52;12.98;;;24.70;38.50;;;;;;6130830;28;84868;-73
2021/10/27 03:57:17;;;;;;;20.63;13.30;;;24.70;38.70;;;;;;6131592;28;82945;-73
2021/10/27 04:00:17;;;;;;;23.60;13.20;;;24.80;38.60;;;;;;6131697;28;82957;-71
2021/10/27 04:03:18;;;;;;;19.50;12.25;;;24.80;38.80;;;;;;6131566;28;83265;-71
2021/10/27 04:06:18;;;;;;;19.88;12.02;;;24.80;38.70;;;;;;6131347;28;83236;-71
2021/10/27 04:09:19;;;;;;;21.00;11.68;;;24.80;38.40;;;;;;6145900;28;84210;-69
2021/10/27 04:12:19;;;;;;;18.25;11.70;;;24.80;38.60;;;;;;6131767;28;83093;-72
2021/10/27 04:15:20;;;;;;;18.10;11.52;;;24.80;38.50;;;;;;6112761;28;86166;-73
2021/10/27 04:18:20;;;;;;;18.10;12.00;;;24.80;38.70;;;;;;6130599;28;84038;-72
2021/10/27 04:21:21;;;;;;;17.58;12.13;;;24.80;38.50;;;;;;6129458;28;83336;-71
2021/10/27 04:24:21;;;;;;;19.40;12.02;;;24.80;38.40;;;;;;6130904;28;84447;-70
2021/10/27 04:27:22;;;;;;;16.80;10.88;;;24.80;38.40;;;;;;6131419;28;83686;-67
2021/10/27 04:30:23;;;;;;;20.35;12.70;;;24.80;38.80;;;;;;6130746;28;83483;-64
2021/10/27 04:33:23;;;;;;;20.80;12.18;;;24.80;39.70;;;;;;6131725;28;83031;-64
2021/10/27 04:36:24;;;;;;;19.38;12.40;;;24.80;38.90;;;;;;6130545;28;82904;-63
2021/10/27 04:39:24;;;;;;;19.88;12.23;;;24.80;38.70;;;;;;6130327;28;83479;-67
2021/10/27 04:42:25;;;;;;;21.52;12.40;;;24.80;38.70;;;;;;6129819;28;82819;-70
2021/10/27 04:45:26;;;;;;;22.65;12.57;;;24.80;38.50;;;;;;6130767;28;83278;-66
2021/10/27 04:48:26;;;;;;;24.50;13.52;;;24.80;38.80;;;;;;6127432;28;85613;-68
2021/10/27 04:51:27;;;;;;;23.30;11.98;;;24.80;38.90;;;;;;6129131;28;84003;-62
2021/10/27 04:54:28;;;;;;;21.98;12.35;;;24.80;39.10;;;;;;6130473;28;83051;-62
2021/10/27 04:57:28;;;;;;;21.02;12.90;;;24.80;39.00;;;;;;6130160;28;83903;-63
2021/10/27 05:00:29;;;;;;;19.80;12.60;;;24.80;38.90;;;;;;6129728;28;83045;-62
2021/10/27 05:03:29;;;;;;;21.38;12.52;;;24.80;38.80;;;;;;6129153;28;83511;-66
2021/10/27 05:06:30;;;;;;;18.38;11.73;;;24.80;38.70;;;;;;6129864;28;83080;-67
2021/10/27 05:09:31;;;;;;;19.58;12.80;;;24.80;38.90;;;;;;6128247;28;84312;-68
2021/10/27 05:12:31;;;;;;;20.05;11.93;;;24.80;39.50;;;;;;6122229;28;84402;-70
2021/10/27 05:15:32;;;;;;;20.85;12.80;;;24.80;39.60;;;;;;6126012;28;83835;-70
2021/10/27 05:18:33;;;;;;;21.42;12.68;;;24.70;39.80;;;;;;6129994;28;83747;-68
2021/10/27 05:21:34;;;;;;;21.83;12.82;;;24.80;39.90;;;;;;6126274;28;83120;-67
2021/10/27 05:24:34;;;;;;;19.80;13.07;;;24.80;40.10;;;;;;6119968;28;84023;-67
2021/10/27 05:27:36;;;;;;;19.20;12.45;;;24.70;40.00;;;;;;6130107;28;82765;-67
2021/10/27 05:30:37;;;;;;;22.13;12.02;;;24.70;40.10;;;;;;6123208;28;83102;-67
2021/10/27 05:33:37;;;;;;;23.20;13.75;;;24.70;40.20;;;;;;6129562;28;83464;-67
2021/10/27 05:36:38;;;;;;;19.13;12.90;;;24.80;40.30;;;;;;6126087;28;83588;-67
2021/10/27 05:39:38;;;;;;;20.75;13.15;;;24.80;40.30;;;;;;6125917;28;83278;-66
2021/10/27 05:42:40;;;;;;;20.20;13.60;;;24.80;40.20;;;;;;6130374;28;83259;-68
2021/10/27 05:45:40;;;;;;;19.63;12.23;;;24.80;40.20;;;;;;6126345;28;84140;-68
2021/10/27 05:48:44;;;;;;;19.80;12.07;;;24.80;40.30;;;;;;6133420;28;83532;-68
2021/10/27 05:51:48;;;;;;;20.23;12.02;;;24.80;40.40;;;;;;6133340;28;83464;-68
2021/10/27 05:55:05;;;;;;;19.60;10.93;;;24.80;40.60;;;;;;6132883;28;83065;-68
2021/10/27 05:58:05;;;;;;;19.73;12.18;;;24.80;40.70;;;;;;6114652;28;83463;-67
2021/10/27 06:01:06;;;;;;;19.17;11.65;;;24.80;40.50;;;;;;6150570;28;82991;-67
2021/10/27 06:04:06;;;;;;;32.33;13.13;;;24.80;40.70;;;;;;6133588;28;83779;-69
2021/10/27 06:07:07;;;;;;;17.50;12.43;;;24.80;40.80;;;;;;6132753;28;83930;-67
2021/10/27 06:10:08;;;;;;;20.10;12.15;;;24.80;40.70;;;;;;6131567;28;83564;-66
2021/10/27 06:13:14;;;;;;;18.77;11.90;;;24.80;41.00;;;;;;6129514;28;83504;-68
2021/10/27 06:16:14;;;;;;;20.20;10.80;;;24.80;40.90;;;;;;6134457;28;83654;-67
2021/10/27 06:19:15;;;;;;;20.00;11.10;;;24.80;40.90;;;;;;6133026;28;84017;-68
2021/10/27 06:22:15;;;;;;;26.48;10.80;;;24.80;40.80;;;;;;6131331;28;83150;-68
2021/10/27 06:25:16;;;;;;;140.73;47.65;;;24.80;40.80;;;;;;6134130;28;83585;-68
2021/10/27 06:28:23;;;;;;;642.72;238.68;;;24.80;41.00;;;;;;6132964;28;82810;-68
2021/10/27 06:34:40;;;;;;;692.08;261.55;;;24.80;40.80;;;;;;6137619;28;85861;-66
2021/10/27 06:38:14;;;;;;;706.25;265.58;;;24.80;40.50;;;;;;6130296;28;86350;-64
2021/10/27 06:47:40;;;;;;;1049.05;422.98;;;24.80;40.50;;;;;;6128384;28;85821;-67
2021/10/27 06:50:42;;;;;;;956.60;379.50;;;24.80;40.40;;;;;;6128264;28;85607;-69
2021/10/27 06:53:43;;;;;;;895.65;356.05;;;24.80;40.60;;;;;;6129363;28;86036;-68
2021/10/27 06:56:43;;;;;;;836.13;333.08;;;24.80;40.50;;;;;;6144445;28;88138;-67
2021/10/27 06:59:45;;;;;;;829.95;322.88;;;24.80;40.60;;;;;;6129230;28;85563;-63
2021/10/27 07:06:14;;;;;;;672.38;264.55;;;24.80;40.70;;;;;;6128317;28;85861;-67
2021/10/27 07:15:54;;;;;;;602.15;224.93;;;25.00;40.70;;;;;;6135307;28;86753;-68
2021/10/27 07:18:55;;;;;;;542.20;192.10;;;25.00;40.50;;;;;;6153257;28;85918;-70
2021/10/27 07:21:55;;;;;;;489.65;168.70;;;25.10;40.80;;;;;;6152145;28;87334;-69
2021/10/27 07:24:57;;;;;;;452.08;153.80;;;25.10;40.90;;;;;;6152723;28;91986;-70
2021/10/27 07:27:58;;;;;;;399.27;136.35;;;25.20;40.90;;;;;;6152818;28;87247;-67
2021/10/27 07:30:59;;;;;;;363.73;123.03;;;25.20;40.60;;;;;;6151276;28;85515;-66
2021/10/27 07:34:08;;;;;;;303.85;100.95;;;25.20;40.50;;;;;;6152868;28;85694;-71
2021/10/27 07:40:35;;;;;;;200.93;77.05;;;25.20;39.90;;;;;;6154612;28;85309;-67
2021/10/27 07:43:36;;;;;;;187.77;69.05;;;25.20;39.50;;;;;;6136176;28;83576;-67
2021/10/27 07:46:36;;;;;;;157.82;60.53;;;25.30;39.50;;;;;;6155374;28;83747;-71
2021/10/27 07:49:37;;;;;;;134.68;50.35;;;25.30;39.30;;;;;;6156411;28;83953;-66
2021/10/27 07:52:37;;;;;;;121.40;46.55;;;25.30;39.40;;;;;;6137147;28;84199;-67
2021/10/27 07:55:41;;;;;;;108.03;40.83;;;25.30;39.30;;;;;;6135410;28;85013;-67
2021/10/27 07:58:42;;;;;;;106.28;38.92;;;25.30;39.40;;;;;;6135353;28;84119;-68
2021/10/27 08:01:42;;;;;;;95.07;34.97;;;25.30;39.40;;;;;;6151929;28;82884;-66
2021/10/27 08:04:43;;;;;;;84.53;32.25;;;25.30;39.40;;;;;;6133171;28;84291;-67
2021/10/27 08:07:44;;;;;;;79.25;30.50;;;25.40;39.80;;;;;;6113166;28;84269;-66
2021/10/27 08:10:45;;;;;;;71.22;29.50;;;25.40;39.50;;;;;;6140167;28;83415;-68
2021/10/27 08:13:45;;;;;;;62.92;27.67;;;25.40;39.40;;;;;;6149128;28;83081;-68
2021/10/27 08:16:46;;;;;;;60.95;25.02;;;25.50;39.20;;;;;;6151595;28;82939;-67
2021/10/27 08:19:50;;;;;;;58.47;23.85;;;25.50;39.10;;;;;;6152356;28;84147;-66
2021/10/27 08:23:28;;;;;;;52.28;24.75;;;25.50;39.00;;;;;;6140509;28;84313;-67
2021/10/27 08:26:20;;;;;;;54.42;23.13;;;25.50;38.90;;;;;;6124750;28;82978;-68
2021/10/27 08:29:27;;;;;;;43.70;20.33;;;25.60;38.90;;;;;;6123635;28;84126;-69
2021/10/27 08:32:40;;;;;;;45.30;21.70;;;25.70;38.70;;;;;;6128162;28;84379;-67
2021/10/27 08:35:41;;;;;;;42.42;20.20;;;25.70;38.70;;;;;;6149388;28;83334;-68
2021/10/27 08:38:42;;;;;;;43.78;19.40;;;25.80;38.60;;;;;;6137174;28;86794;-67
2021/10/27 08:41:42;;;;;;;45.78;18.73;;;25.80;38.60;;;;;;6153292;28;83061;-66
2021/10/27 08:44:43;;;;;;;40.97;18.17;;;25.90;38.70;;;;;;6145913;28;83661;-69
2021/10/27 08:47:47;;;;;;;37.42;16.55;;;25.90;38.70;;;;;;6144761;28;83179;-66
2021/10/27 08:50:49;;;;;;;37.08;17.67;;;25.90;38.70;;;;;;6145252;28;84238;-64
2021/10/27 08:53:51;;;;;;;32.65;16.25;;;26.00;38.50;;;;;;6146202;28;84126;-66
2021/10/27 08:56:55;;;;;;;30.35;15.43;;;26.00;38.60;;;;;;6151997;28;82994;-68
2021/10/27 09:03:35;;;;;;;35.83;15.38;;;26.10;38.70;;;;;;6146270;28;87461;-70
2021/10/27 09:06:51;;;;;;;34.00;15.65;;;26.10;38.70;;;;;;6115200;28;83288;-70
2021/10/27 09:14:32;;;;;;;29.45;15.00;;;26.10;38.40;;;;;;6151245;28;83875;-64
2021/10/27 09:36:18;;;;;;;30.70;11.90;;;26.30;38.00;;;;;;6106299;28;83048;-71
2021/10/27 10:05:37;;;;;;;16.70;8.63;;;26.20;36.60;;;;;;6155930;28;80417;-68
2021/10/27 10:08:38;;;;;;;17.80;8.48;;;26.30;37.10;;;;;;6160462;28;81231;-72
2021/10/27 10:11:39;;;;;;;14.52;8.52;;;26.40;36.60;;;;;;6148727;28;80595;-70
2021/10/27 10:14:39;;;;;;;14.40;8.43;;;26.40;37.00;;;;;;6150556;28;80383;-69
2021/10/27 10:17:40;;;;;;;18.38;9.35;;;26.10;36.80;;;;;;6152617;28;81531;-67
2021/10/27 10:20:41;;;;;;;11.70;8.20;;;26.10;36.70;;;;;;6145924;28;80573;-69
2021/10/27 10:23:41;;;;;;;13.60;7.70;;;26.20;36.60;;;;;;6132531;28;80710;-67
2021/10/27 10:26:51;;;;;;;15.60;8.05;;;26.30;36.70;;;;;;6129953;28;80613;-68
2021/10/27 10:29:59;;;;;;;15.00;7.50;;;26.40;36.60;;;;;;6140745;28;80525;-68
2021/10/27 10:33:01;;;;;;;12.27;7.55;;;26.60;36.60;;;;;;6146737;28;80073;-69
2021/10/27 10:36:05;;;;;;;10.88;7.95;;;26.70;36.70;;;;;;6145535;28;80751;-70
2021/10/27 10:42:33;;;;;;;13.25;7.07;;;26.80;36.90;;;;;;6145714;28;80938;-71
2021/10/27 11:22:30;;;;;;;11.15;6.80;;;27.40;37.30;;;;;;6133668;28;80572;-69
2021/10/27 11:26:00;;;;;;;10.68;7.10;;;27.50;37.00;;;;;;6141492;28;81491;-65
2021/10/27 11:39:08;;;;;;;13.10;5.97;;;27.50;36.50;;;;;;6133914;28;80870;-67
2021/10/27 11:42:18;;;;;;;8.43;5.68;;;27.50;36.70;;;;;;6130394;28;81539;-66
2021/10/27 11:51:38;;;;;;;11.18;5.90;;;27.60;36.70;;;;;;6130732;28;82122;-71
2021/10/27 11:54:39;;;;;;;9.43;5.63;;;27.50;36.60;;;;;;6132470;28;81821;-71
2021/10/27 11:57:39;;;;;;;12.93;5.38;;;27.50;36.80;;;;;;6131410;28;80517;-67
2021/10/27 12:00:46;;;;;;;19.00;5.82;;;27.50;36.90;;;;;;6134635;28;80515;-66
2021/10/27 12:03:47;;;;;;;12.02;5.40;;;27.50;36.90;;;;;;6133888;28;80054;-67
2021/10/27 12:07:01;;;;;;;19.55;5.90;;;27.50;36.80;;;;;;6133887;28;81278;-68
2021/10/27 12:10:28;;;;;;;10.20;5.40;;;27.40;36.90;;;;;;6125979;28;81691;-69
2021/10/27 12:19:51;;;;;;;11.45;5.90;;;27.40;36.10;;;;;;6134223;28;84882;-70
2021/10/27 12:22:52;;;;;;;9.07;5.32;;;27.40;36.10;;;;;;6129178;28;81765;-70
2021/10/27 12:25:53;;;;;;;7.28;5.18;;;27.30;36.10;;;;;;6142475;28;81093;-70
2021/10/27 12:28:55;;;;;;;6.90;5.13;;;27.30;35.90;;;;;;6124578;28;86685;-69
2021/10/27 12:31:55;;;;;;;8.23;5.35;;;27.20;35.90;;;;;;6155996;28;80545;-69
2021/10/27 12:34:56;;;;;;;8.32;5.20;;;27.20;36.00;;;;;;6159276;28;80537;-69
2021/10/27 12:37:58;;;;;;;12.57;5.47;;;27.20;36.10;;;;;;6157869;28;81258;-69
2021/10/27 12:41:02;;;;;;;6.68;4.90;;;27.20;36.10;;;;;;6145995;28;80935;-69
2021/10/27 12:44:02;;;;;;;7.07;4.57;;;27.10;35.90;;;;;;6157250;28;80443;-69
2021/10/27 12:47:03;;;;;;;9.70;5.07;;;27.10;35.90;;;;;;6155812;28;81055;-69
2021/10/27 12:50:03;;;;;;;8.10;5.53;;;27.10;36.00;;;;;;6157296;28;80398;-70
2021/10/27 12:53:04;;;;;;;6.05;4.85;;;27.00;35.90;;;;;;6159052;28;87881;-70
2021/10/27 12:56:04;;;;;;;8.65;5.03;;;27.00;35.90;;;;;;6161629;28;80640;-69
2021/10/27 12:59:08;;;;;;;7.25;5.20;;;27.00;36.10;;;;;;6160821;28;80467;-70
2021/10/27 13:02:20;;;;;;;13.23;6.13;;;27.00;35.90;;;;;;6143902;28;81054;-69
2021/10/27 13:05:20;;;;;;;11.45;5.60;;;26.90;35.80;;;;;;6163016;28;80464;-69
2021/10/27 13:11:33;;;;;;;9.40;5.80;;;27.00;35.80;;;;;;6160372;28;80692;-69
2021/10/27 13:14:47;;;;;;;8.30;5.32;;;27.00;35.80;;;;;;6159595;28;83098;-69
2021/10/27 13:18:09;;;;;;;8.85;5.80;;;27.00;35.70;;;;;;6161908;28;80447;-69
2021/10/27 13:30:54;;;;;;;15.43;6.97;;;27.10;35.50;;;;;;6161315;28;80606;-68
2021/10/27 13:33:54;;;;;;;12.65;7.15;;;27.10;35.40;;;;;;6144109;28;83173;-69
2021/10/27 13:36:55;;;;;;;9.88;7.15;;;27.20;35.40;;;;;;6160913;28;80165;-69
2021/10/27 13:39:57;;;;;;;10.00;6.85;;;27.20;35.30;;;;;;6161320;28;80515;-69
2021/10/27 13:43:10;;;;;;;10.23;6.95;;;27.30;35.30;;;;;;6154116;28;80458;-66
2021/10/27 13:49:47;;;;;;;10.98;6.85;;;27.50;35.00;;;;;;6157983;28;82469;-70
2021/10/27 14:06:11;;;;;;;10.70;7.15;;;27.10;36.50;;;;;;6159873;28;80576;-65
2021/10/27 15:28:50;;;;;;;13.95;6.03;;;25.90;37.80;;;;;;6155558;28;85067;-68
2021/10/27 15:51:27;;;;;;;16.85;6.28;;;25.60;38.00;;;;;;6156096;28;81650;-67
2021/10/27 15:54:27;;;;;;;11.05;5.95;;;25.60;37.90;;;;;;6156971;28;80989;-67
2021/10/27 15:57:28;;;;;;;15.93;7.20;;;25.50;38.20;;;;;;6156701;28;80621;-67
2021/10/27 16:00:28;;;;;;;13.65;7.15;;;25.50;38.10;;;;;;6158000;28;80548;-68
2021/10/27 16:03:29;;;;;;;14.35;6.18;;;25.50;37.90;;;;;;6155559;28;86765;-68
2021/10/27 16:06:32;;;;;;;12.20;6.72;;;25.50;38.40;;;;;;6159537;28;80375;-67
2021/10/27 16:09:38;;;;;;;10.80;6.13;;;25.40;38.10;;;;;;6157178;28;80858;-67
2021/10/27 16:12:39;;;;;;;11.50;7.10;;;25.40;38.50;;;;;;6141824;28;80422;-66
2021/10/27 16:15:41;;;;;;;15.60;7.20;;;25.40;39.10;;;;;;6134595;28;80401;-66
2021/10/27 16:18:42;;;;;;;10.98;6.20;;;25.50;39.40;;;;;;6149007;28;80521;-68
2021/10/27 16:21:42;;;;;;;9.82;5.78;;;25.50;40.20;;;;;;6139204;28;80886;-67
2021/10/27 16:24:43;;;;;;;10.20;6.63;;;25.50;40.20;;;;;;6157246;28;80984;-69
2021/10/27 16:27:43;;;;;;;13.13;6.63;;;25.60;40.10;;;;;;6155661;28;80630;-67
2021/10/27 16:30:44;;;;;;;12.50;6.97;;;25.60;39.70;;;;;;6142762;28;87962;-67
2021/10/27 16:33:46;;;;;;;15.20;8.40;;;25.70;40.20;;;;;;6154008;28;80818;-68
2021/10/27 16:36:46;;;;;;;20.92;7.88;;;25.70;39.80;;;;;;6156608;28;81881;-67
2021/10/27 16:39:47;;;;;;;15.52;7.00;;;25.70;39.30;;;;;;6159830;28;80335;-68
2021/10/27 16:42:48;;;;;;;22.48;8.52;;;25.60;39.70;;;;;;6154865;28;80234;-68
2021/10/27 16:45:50;;;;;;;18.98;7.20;;;25.70;39.10;;;;;;6142233;28;83774;-67
2021/10/27 16:48:51;;;;;;;16.13;8.52;;;25.60;39.30;;;;;;6153970;28;80588;-67
2021/10/27 16:51:51;;;;;;;13.38;7.05;;;25.60;39.90;;;;;;6152267;28;80893;-67
2021/10/27 16:54:52;;;;;;;14.07;7.53;;;25.70;40.30;;;;;;6146686;28;80673;-66
2021/10/27 16:57:54;;;;;;;17.10;7.60;;;25.70;39.80;;;;;;6157271;28;80532;-69
2021/10/27 17:00:54;;;;;;;14.85;8.95;;;25.70;40.20;;;;;;6138789;28;81866;-67
2021/10/27 17:03:55;;;;;;;14.30;8.20;;;25.70;39.80;;;;;;6138385;28;80311;-68
2021/10/27 17:06:58;;;;;;;14.25;8.98;;;25.60;39.00;;;;;;6151971;28;80465;-67
2021/10/27 17:09:59;;;;;;;21.20;9.63;;;25.50;39.40;;;;;;6140833;28;80304;-71
2021/10/27 17:13:00;;;;;;;16.02;9.00;;;25.50;39.70;;;;;;6147851;28;80591;-68
2021/10/27 17:16:00;;;;;;;14.77;8.95;;;25.50;39.80;;;;;;6157978;28;80630;-69
2021/10/27 17:19:01;;;;;;;21.15;9.15;;;25.50;40.10;;;;;;6157008;28;80207;-68
2021/10/27 17:22:02;;;;;;;16.52;9.73;;;25.50;40.90;;;;;;6156580;28;80730;-67
2021/10/27 17:25:03;;;;;;;14.52;9.63;;;25.40;41.50;;;;;;6156501;28;80652;-64
2021/10/27 17:28:05;;;;;;;22.08;10.38;;;25.40;41.50;;;;;;6134746;28;80621;-67
2021/10/27 17:31:05;;;;;;;20.17;10.35;;;25.30;42.80;;;;;;6133601;28;83662;-69
2021/10/27 17:34:06;;;;;;;18.83;10.43;;;25.30;43.70;;;;;;6129257;28;82981;-69
2021/10/27 17:37:06;;;;;;;23.77;11.25;;;25.20;44.90;;;;;;6147821;28;83374;-69
2021/10/27 17:40:19;;;;;;;18.05;10.30;;;25.20;45.30;;;;;;6152408;28;83377;-69
2021/10/27 17:43:19;;;;;;;22.05;10.93;;;25.10;44.50;;;;;;6131525;28;83285;-67
2021/10/27 17:46:23;;;;;;;19.95;11.68;;;25.10;44.60;;;;;;6133514;28;83380;-69
2021/10/27 17:59:19;;;;;;;20.95;11.63;;;24.90;45.10;;;;;;6114864;28;83555;-68
2021/10/27 18:02:20;;;;;;;22.05;12.18;;;24.80;45.30;;;;;;6132846;28;83332;-70
2021/10/27 18:05:20;;;;;;;21.13;12.18;;;24.80;44.50;;;;;;6148500;28;83715;-71
2021/10/27 18:08:22;;;;;;;20.33;12.15;;;24.80;44.50;;;;;;6132132;28;84558;-68
2021/10/27 18:11:25;;;;;;;20.40;11.35;;;24.80;44.20;;;;;;6132494;28;83259;-69
2021/10/27 18:14:28;;;;;;;20.60;12.40;;;24.80;44.80;;;;;;6131475;28;83456;-69
2021/10/27 18:17:32;;;;;;;18.83;12.05;;;24.80;45.00;;;;;;6132094;28;83477;-65
2021/10/27 18:20:40;;;;;;;20.98;12.43;;;24.70;44.60;;;;;;6132279;28;85785;-69
2021/10/27 18:27:24;;;;;;;21.20;11.57;;;24.60;44.60;;;;;;6130665;28;84148;-68
2021/10/27 18:40:22;;;;;;;27.20;12.63;;;24.50;44.00;;;;;;6132669;28;84627;-71
2021/10/27 18:43:29;;;;;;;33.08;14.07;;;24.40;44.10;;;;;;6129866;28;83161;-71
2021/10/27 18:46:29;;;;;;;21.33;13.00;;;24.40;44.40;;;;;;6129934;28;83417;-69
2021/10/27 18:49:31;;;;;;;26.25;13.80;;;24.30;44.50;;;;;;6130449;28;83208;-70
2021/10/27 18:58:42;;;;;;;25.35;14.95;;;24.20;44.10;;;;;;6132447;28;82995;-69
2021/10/27 19:02:10;;;;;;;24.83;14.27;;;24.20;44.00;;;;;;6132629;28;88028;-69
2021/10/27 19:11:49;;;;;;;23.10;13.90;;;24.00;43.80;;;;;;6145625;28;83138;-70
2021/10/27 19:17:50;;;;;;;28.67;16.00;;;24.00;43.70;;;;;;6156191;28;84240;-73
2021/10/27 19:20:53;;;;;;;24.85;14.88;;;24.00;43.80;;;;;;6158000;28;84002;-73
2021/10/27 19:23:54;;;;;;;25.63;14.82;;;24.00;43.50;;;;;;6155502;28;83323;-71
2021/10/27 19:26:59;;;;;;;26.55;15.35;;;24.00;43.50;;;;;;6122937;28;83726;-72
2021/10/27 20:29:33;;;;;;;;;;;23.80;43.10;;;;;;6106161;28;84260;-73
2021/10/27 20:48:40;;;;;;;28.25;16.25;;;23.80;43.00;;;;;;6141704;28;83227;-72
2021/10/27 20:52:36;;;;;;;31.50;17.42;;;23.60;43.10;;;;;;6128329;28;86974;-72
2021/10/27 20:55:38;;;;;;;31.88;17.33;;;23.60;43.10;;;;;;6126829;28;83469;-71
2021/10/27 21:15:07;;;;;;;28.88;18.38;;;23.60;43.30;;;;;;6152945;28;83340;-68
2021/10/27 21:18:08;;;;;;;34.78;19.17;;;23.60;43.20;;;;;;6155361;28;84143;-69
2021/10/27 21:21:08;;;;;;;35.47;19.08;;;23.50;43.10;;;;;;6154996;28;83548;-71
2021/10/27 21:24:09;;;;;;;30.75;18.40;;;23.50;43.00;;;;;;6156837;28;83892;-68
2021/10/27 21:27:16;;;;;;;30.70;19.00;;;23.50;43.10;;;;;;6156080;28;83969;-69
2021/10/27 21:43:18;;;;;;;31.63;17.92;;;23.40;42.90;;;;;;6146569;28;84368;-68
2021/10/27 21:46:19;;;;;;;26.75;16.58;;;23.40;42.80;;;;;;6156234;28;86022;-69
2021/10/27 21:49:21;;;;;;;29.15;17.52;;;23.40;42.70;;;;;;6157844;28;82996;-71
2021/10/27 21:52:21;;;;;;;37.25;17.45;;;23.40;42.70;;;;;;6155572;28;83319;-68
2021/10/27 21:55:26;;;;;;;27.08;16.10;;;23.40;42.50;;;;;;6156450;28;83281;-67
2021/10/27 21:58:26;;;;;;;25.38;15.80;;;23.40;42.40;;;;;;6155243;28;84468;-68
2021/10/27 22:01:27;;;;;;;24.63;16.15;;;23.30;42.40;;;;;;6155282;28;84041;-67
2021/10/27 22:04:28;;;;;;;27.08;16.63;;;23.30;42.30;;;;;;6154451;28;83328;-68
2021/10/27 22:07:28;;;;;;;26.35;16.38;;;23.30;42.30;;;;;;6158864;28;82911;-68
2021/10/27 22:10:32;;;;;;;26.10;16.52;;;23.20;42.20;;;;;;6153803;28;85694;-68
2021/10/27 22:13:32;;;;;;;26.60;15.93;;;23.20;42.20;;;;;;6154125;28;83106;-68
2021/10/27 22:16:33;;;;;;;29.23;16.33;;;23.20;42.20;;;;;;6155383;28;83344;-69
2021/10/27 22:19:33;;;;;;;30.45;17.65;;;23.20;42.00;;;;;;6157173;28;84033;-69